createdAt,value
2018-09-17T00:01:11.146Z,18.67
2018-09-17T00:03:39.831Z,18.30
2018-09-17T00:06:08.325Z,18.90
2018-09-17T00:08:37.416Z,18.03
2018-09-17T00:11:06.031Z,17.83
2018-09-17T00:13:34.672Z,19.47
2018-09-17T00:16:03.259Z,18.87
2018-09-17T00:18:31.940Z,18.33
2018-09-17T00:21:00.523Z,19.27
2018-09-17T00:23:29.209Z,20.47
2018-09-17T00:25:57.590Z,20.47
2018-09-17T00:28:26.170Z,20.27
2018-09-17T00:30:55.162Z,20.23
2018-09-17T00:33:23.645Z,21.40
2018-09-17T00:35:52.125Z,21.23
2018-09-17T00:38:20.611Z,20.57
2018-09-17T00:40:49.084Z,20.87
2018-09-17T00:43:18.028Z,19.73
2018-09-17T00:45:46.661Z,19.83
2018-09-17T00:48:15.244Z,20.20
2018-09-17T00:50:43.825Z,19.17
2018-09-17T00:53:12.422Z,18.83
2018-09-17T00:55:40.902Z,18.97
2018-09-17T00:58:09.294Z,20.10
2018-09-17T01:00:37.903Z,19.70
2018-09-17T01:03:06.746Z,19.70
2018-09-17T01:05:35.429Z,19.47
2018-09-17T01:08:04.121Z,21.63
2018-09-17T01:10:32.602Z,19.87
2018-09-17T01:13:01.071Z,20.03
2018-09-17T01:15:30.066Z,18.30
2018-09-17T01:17:58.705Z,20.97
2018-09-17T01:20:27.341Z,22.13
2018-09-17T01:22:55.918Z,21.37
2018-09-17T01:25:24.400Z,23.03
2018-09-17T01:27:53.083Z,23.63
2018-09-17T01:30:21.691Z,22.70
2018-09-17T01:32:50.152Z,23.00
2018-09-17T01:35:18.647Z,22.10
2018-09-17T01:37:47.319Z,24.83
2018-09-17T01:40:15.997Z,23.70
2018-09-17T01:42:44.582Z,22.40
2018-09-17T01:45:13.163Z,24.07
2018-09-17T01:47:41.646Z,23.77
2018-09-17T01:50:10.092Z,24.00
2018-09-17T01:52:39.014Z,23.23
2018-09-17T01:55:07.490Z,23.53
2018-09-17T01:57:36.033Z,24.30
2018-09-17T02:00:04.661Z,24.93
2018-09-17T02:02:33.047Z,24.03
2018-09-17T02:05:01.724Z,25.60
2018-09-17T02:07:30.309Z,23.30
2018-09-17T02:09:59.073Z,24.70
2018-09-17T02:12:27.595Z,24.97
2018-09-17T02:14:55.744Z,24.73
2018-09-17T02:17:23.930Z,25.90
2018-09-17T02:19:52.232Z,25.67
2018-09-17T02:22:21.095Z,24.97
2018-09-17T02:24:49.516Z,25.97
2018-09-17T02:27:17.947Z,24.07
2018-09-17T02:29:46.565Z,24.60
2018-09-17T02:32:15.132Z,26.07
2018-09-17T02:34:43.490Z,25.70
2018-09-17T02:37:12.077Z,26.10
2018-09-17T02:39:40.656Z,26.10
2018-09-17T02:42:09.311Z,25.50
2018-09-17T02:44:37.711Z,27.23
2018-09-17T02:47:06.114Z,26.53
2018-09-17T02:49:34.582Z,28.70
2018-09-17T02:52:03.163Z,26.60
2018-09-17T02:54:31.646Z,28.50
2018-09-17T02:57:00.228Z,28.50
2018-09-17T02:59:28.810Z,26.63
2018-09-17T03:01:57.503Z,26.07
2018-09-17T03:04:26.086Z,28.43
2018-09-17T03:06:54.677Z,28.50
2018-09-17T03:09:23.243Z,30.73
2018-09-17T03:11:51.830Z,28.13
2018-09-17T03:14:26.366Z,27.87
2018-09-17T03:17:00.259Z,28.70
2018-09-17T03:19:28.842Z,30.87
2018-09-17T03:21:57.422Z,30.67
2018-09-17T03:24:25.965Z,30.03
2018-09-17T03:26:54.903Z,31.70
2018-09-17T03:29:23.374Z,29.80
2018-09-17T03:31:51.959Z,31.07
2018-09-17T03:34:20.540Z,30.43
2018-09-17T03:36:49.020Z,30.03
2018-09-17T03:39:17.610Z,30.47
2018-09-17T03:41:46.395Z,31.60
2018-09-17T03:44:15.590Z,31.10
2018-09-17T03:46:44.329Z,31.20
2018-09-17T03:49:13.064Z,32.60
2018-09-17T03:51:41.479Z,31.13
2018-09-17T03:54:10.127Z,32.23
2018-09-17T03:56:38.607Z,33.73
2018-09-17T03:59:09.062Z,32.17
2018-09-17T04:01:38.028Z,31.00
2018-09-17T04:04:06.612Z,32.97
2018-09-17T04:06:35.299Z,32.90
2018-09-17T04:09:04.593Z,33.73
2018-09-17T04:11:33.382Z,33.47
2018-09-17T04:14:01.967Z,33.03
2018-09-17T04:16:30.546Z,32.67
2018-09-17T04:18:59.232Z,33.20
2018-09-17T04:21:27.840Z,33.37
2018-09-17T04:23:56.403Z,33.43
2018-09-17T04:26:25.085Z,32.63
2018-09-17T04:28:53.667Z,34.53
2018-09-17T04:31:22.152Z,32.20
2018-09-17T04:33:50.742Z,33.37
2018-09-17T04:36:19.241Z,34.50
2018-09-17T04:38:47.791Z,33.07
2018-09-17T04:41:50.656Z,36.95
2018-09-17T04:44:55.472Z,34.30
2018-09-17T04:47:23.893Z,36.87
2018-09-17T04:49:52.136Z,35.17
2018-09-17T04:52:21.242Z,35.90
2018-09-17T04:54:49.743Z,35.77
2018-09-17T04:57:18.375Z,36.80
2018-09-17T04:59:46.911Z,35.10
2018-09-17T05:02:15.081Z,36.77
2018-09-17T05:04:44.251Z,34.00
2018-09-17T05:07:13.858Z,35.60
2018-09-17T05:09:42.390Z,35.27
2018-09-17T05:12:10.583Z,37.20
2018-09-17T05:14:38.798Z,36.77
2018-09-17T05:17:06.975Z,41.97
2018-09-17T05:19:35.133Z,40.77
2018-09-17T05:22:03.335Z,41.77
2018-09-17T05:24:31.632Z,41.00
2018-09-17T05:26:59.789Z,40.03
2018-09-17T05:29:28.489Z,48.37
2018-09-17T05:31:56.742Z,41.00
2018-09-17T05:34:24.923Z,44.20
2018-09-17T05:36:53.096Z,47.13
2018-09-17T05:39:21.578Z,44.40
2018-09-17T05:41:50.115Z,47.00
2018-09-17T05:44:18.386Z,46.67
2018-09-17T05:46:47.118Z,47.90
2018-09-17T05:49:15.600Z,51.67
2018-09-17T05:51:44.284Z,62.47
2018-09-17T05:54:12.867Z,63.50
2018-09-17T05:56:41.452Z,65.10
2018-09-17T05:59:10.137Z,61.00
2018-09-17T06:01:38.924Z,55.27
2018-09-17T06:04:07.404Z,49.23
2018-09-17T06:06:36.295Z,49.23
2018-09-17T06:09:07.235Z,62.33
2018-09-17T06:11:35.812Z,47.33
2018-09-17T06:14:04.401Z,57.30
2018-09-17T06:16:32.683Z,50.13
2018-09-17T06:19:01.468Z,53.03
2018-09-17T06:21:30.249Z,49.37
2018-09-17T06:23:58.468Z,42.90
2018-09-17T06:26:27.012Z,48.30
2018-09-17T06:28:55.704Z,49.10
2018-09-17T06:31:24.083Z,41.93
2018-09-17T06:33:52.464Z,53.30
2018-09-17T06:36:21.185Z,45.77
2018-09-17T06:38:50.330Z,42.73
2018-09-17T06:41:19.946Z,36.13
2018-09-17T06:43:48.946Z,32.40
2018-09-17T06:46:17.532Z,42.60
2018-09-17T06:48:45.891Z,37.17
2018-09-17T06:51:14.317Z,36.10
2018-09-17T06:53:42.891Z,28.80
2018-09-17T06:56:11.435Z,25.83
2018-09-17T06:58:40.120Z,29.23
2018-09-17T07:01:08.601Z,23.32
2018-09-17T07:03:37.184Z,25.08
2018-09-17T07:06:05.877Z,25.32
2018-09-17T07:08:34.347Z,22.27
2018-09-17T07:11:02.937Z,23.12
2018-09-17T07:13:31.427Z,18.77
2018-09-17T07:16:00.099Z,16.60
2018-09-17T07:18:28.612Z,17.10
2018-09-17T07:20:57.059Z,19.15
2018-09-17T07:23:25.848Z,17.52
2018-09-17T07:25:54.880Z,19.77
2018-09-17T07:28:23.527Z,19.98
2018-09-17T07:30:52.211Z,20.25
2018-09-17T07:33:20.698Z,19.50
2018-09-17T07:35:49.379Z,18.43
2018-09-17T07:38:17.860Z,17.43
2018-09-17T07:40:46.475Z,18.40
2018-09-17T07:43:15.229Z,18.70
2018-09-17T07:45:43.913Z,18.07
2018-09-17T07:48:12.394Z,19.03
2018-09-17T07:50:41.080Z,19.83
2018-09-17T07:53:09.992Z,20.10
2018-09-17T07:55:38.860Z,19.37
2018-09-17T07:58:07.269Z,19.27
2018-09-17T08:00:35.721Z,19.33
2018-09-17T08:03:04.300Z,20.40
2018-09-17T08:05:33.003Z,19.53
2018-09-17T08:08:01.467Z,19.20
2018-09-17T08:10:45.440Z,21.17
2018-09-17T08:13:14.021Z,21.57
2018-09-17T08:15:42.603Z,19.23
2018-09-17T08:18:11.404Z,20.80
2018-09-17T08:20:40.512Z,20.07
2018-09-17T08:23:09.029Z,20.40
2018-09-17T08:25:37.581Z,20.00
2018-09-17T08:28:06.034Z,19.30
2018-09-17T08:30:34.519Z,18.87
2018-09-17T08:33:03.094Z,19.20
2018-09-17T08:35:31.640Z,18.43
2018-09-17T08:38:00.264Z,20.07
2018-09-17T08:40:28.937Z,18.23
2018-09-17T08:42:57.453Z,19.00
2018-09-17T08:45:26.015Z,20.83
2018-09-17T08:47:54.593Z,20.63
2018-09-17T08:50:23.282Z,22.00
2018-09-17T08:52:51.910Z,19.97
2018-09-17T08:55:25.664Z,20.87
2018-09-17T08:58:01.621Z,17.53
2018-09-17T09:00:35.324Z,16.77
2018-09-17T09:03:09.358Z,18.17
2018-09-17T09:05:43.038Z,17.10
2018-09-17T09:08:11.623Z,19.40
2018-09-17T09:10:45.630Z,22.07
2018-09-17T09:14:23.948Z,23.43
2018-09-17T09:16:52.427Z,22.47
2018-09-17T09:19:20.914Z,22.57
2018-09-17T09:21:49.492Z,24.27
2018-09-17T09:24:17.969Z,22.63
2018-09-17T09:26:46.557Z,21.17
2018-09-17T09:29:15.347Z,21.07
2018-09-17T09:31:44.028Z,26.53
2018-09-17T09:34:12.525Z,24.53
2018-09-17T09:36:41.199Z,24.77
2018-09-17T09:39:10.638Z,21.93
2018-09-17T09:41:39.077Z,22.40
2018-09-17T09:44:07.687Z,22.63
2018-09-17T09:46:36.346Z,21.87
2018-09-17T09:49:05.137Z,21.70
2018-09-17T09:51:33.707Z,21.13
2018-09-17T09:54:02.198Z,22.00
2018-09-17T09:56:30.886Z,22.50
2018-09-17T09:58:59.364Z,22.10
2018-09-17T10:01:32.146Z,22.37
2018-09-17T10:04:05.958Z,21.43
2018-09-17T10:06:34.438Z,21.53
2018-09-17T10:09:08.294Z,23.13
2018-09-17T10:11:42.189Z,21.13
2018-09-17T10:14:16.154Z,21.97
2018-09-17T10:16:50.270Z,22.73
2018-09-17T10:19:20.500Z,22.37
2018-09-17T10:21:49.073Z,23.13
2018-09-17T10:24:17.662Z,19.53
2018-09-17T10:26:46.239Z,20.17
2018-09-17T10:29:14.815Z,20.30
2018-09-17T10:31:43.711Z,18.30
2018-09-17T10:34:12.498Z,23.20
2018-09-17T10:36:41.289Z,24.93
2018-09-17T10:39:12.224Z,19.17
2018-09-17T10:41:41.013Z,19.33
2018-09-17T10:44:09.495Z,18.10
2018-09-17T10:46:38.303Z,18.62
2018-09-17T10:49:07.291Z,21.82
2018-09-17T10:51:35.962Z,18.42
2018-09-17T10:54:04.542Z,16.27
2018-09-17T10:56:33.030Z,18.65
2018-09-17T10:59:01.913Z,18.02
2018-09-17T11:01:30.598Z,16.45
2018-09-17T11:03:59.179Z,16.73
2018-09-17T11:06:27.664Z,17.67
2018-09-17T11:08:56.347Z,16.00
2018-09-17T11:11:25.235Z,16.42
2018-09-17T11:13:53.719Z,16.35
2018-09-17T11:16:22.308Z,16.77
2018-09-17T11:18:50.992Z,16.70
2018-09-17T11:21:19.569Z,14.90
2018-09-17T11:23:48.153Z,16.32
2018-09-17T11:26:16.632Z,16.32
2018-09-17T11:28:44.752Z,15.90
2018-09-17T11:31:13.225Z,15.88
2018-09-17T11:33:41.768Z,16.62
2018-09-17T11:36:10.462Z,16.25
2018-09-17T11:38:38.605Z,16.25
2018-09-17T11:41:07.216Z,15.60
2018-09-17T11:43:35.897Z,15.63
2018-09-17T11:46:04.619Z,16.42
2018-09-17T11:48:33.267Z,16.10
2018-09-17T11:51:01.848Z,16.67
2018-09-17T11:53:30.688Z,16.32
2018-09-17T11:55:59.651Z,15.95
2018-09-17T11:58:27.807Z,16.05
2018-09-17T12:01:01.710Z,15.70
2018-09-17T12:03:35.358Z,16.87
2018-09-17T12:06:04.556Z,16.65
2018-09-17T12:08:33.197Z,16.87
2018-09-17T12:11:01.579Z,16.30
2018-09-17T12:13:30.261Z,16.57
2018-09-17T12:15:58.944Z,16.82
2018-09-17T12:18:27.524Z,16.27
2018-09-17T12:20:56.005Z,16.00
2018-09-17T12:23:24.597Z,16.90
2018-09-17T12:25:53.274Z,16.52
2018-09-17T12:28:21.803Z,17.53
2018-09-17T12:30:50.941Z,16.17
2018-09-17T12:33:19.434Z,15.30
2018-09-17T12:35:47.826Z,16.05
2018-09-17T12:38:16.807Z,16.12
2018-09-17T12:40:45.283Z,14.78
2018-09-17T12:43:13.764Z,16.60
2018-09-17T12:45:42.452Z,14.63
2018-09-17T12:48:11.140Z,17.00
2018-09-17T12:50:39.542Z,18.50
2018-09-17T12:53:08.001Z,17.63
2018-09-17T12:55:36.273Z,18.20
2018-09-17T12:58:04.957Z,19.53
2018-09-17T13:00:33.546Z,18.67
2018-09-17T13:03:02.115Z,20.97
2018-09-17T13:05:30.704Z,20.70
2018-09-17T13:07:59.496Z,20.53
2018-09-17T13:10:27.981Z,18.70
2018-09-17T13:12:56.564Z,19.70
2018-09-17T13:15:25.344Z,20.17
2018-09-17T13:17:53.923Z,20.73
2018-09-17T13:20:22.615Z,20.63
2018-09-17T13:22:51.297Z,19.33
2018-09-17T13:25:19.886Z,18.67
2018-09-17T13:27:48.266Z,21.43
2018-09-17T13:30:16.635Z,18.50
2018-09-17T13:32:45.325Z,18.53
2018-09-17T13:35:13.809Z,18.40
2018-09-17T13:37:42.184Z,18.60
2018-09-17T13:40:10.783Z,18.30
2018-09-17T13:42:39.404Z,18.97
2018-09-17T13:45:07.944Z,19.67
2018-09-17T13:47:36.425Z,19.87
2018-09-17T13:50:05.083Z,19.83
2018-09-17T13:52:33.583Z,18.97
2018-09-17T13:55:02.183Z,18.70
2018-09-17T13:57:31.257Z,20.33
2018-09-17T13:59:59.965Z,18.53
2018-09-17T14:02:28.643Z,18.50
2018-09-17T14:04:57.313Z,17.23
2018-09-17T14:07:25.713Z,18.80
2018-09-17T14:09:54.395Z,18.00
2018-09-17T14:12:22.957Z,19.03
2018-09-17T14:14:51.540Z,18.67
2018-09-17T14:17:20.025Z,19.27
2018-09-17T14:19:48.615Z,20.07
2018-09-17T14:22:17.187Z,19.73
2018-09-17T14:24:45.774Z,19.93
2018-09-17T14:27:14.455Z,20.60
2018-09-17T14:29:43.058Z,19.90
2018-09-17T14:32:17.150Z,20.00
2018-09-17T14:34:45.761Z,21.00
2018-09-17T14:37:14.458Z,21.93
2018-09-17T14:39:42.671Z,19.97
2018-09-17T14:42:11.278Z,20.80
2018-09-17T14:44:39.862Z,19.37
2018-09-17T14:47:08.458Z,19.73
2018-09-17T14:49:36.949Z,19.43
2018-09-17T14:52:05.663Z,17.50
2018-09-17T14:54:34.263Z,19.17
2018-09-17T14:57:02.630Z,20.17
2018-09-17T14:59:31.154Z,18.70
2018-09-17T15:01:59.740Z,17.13
2018-09-17T15:04:28.427Z,15.10
2018-09-17T15:06:57.131Z,15.37
2018-09-17T15:09:25.612Z,15.57
2018-09-17T15:11:54.115Z,15.67
2018-09-17T15:14:22.847Z,14.07
2018-09-17T15:16:51.439Z,14.90
2018-09-17T15:19:19.919Z,20.37
2018-09-17T15:21:48.607Z,14.27
2018-09-17T15:24:17.297Z,18.97
2018-09-17T15:26:45.877Z,23.47
2018-09-17T15:29:14.252Z,14.37
2018-09-17T15:31:42.745Z,13.40
2018-09-17T15:34:11.341Z,13.40
2018-09-17T15:36:39.927Z,11.90
2018-09-17T15:39:09.886Z,11.20
2018-09-17T15:41:38.728Z,12.80
2018-09-17T15:44:07.235Z,13.30
2018-09-17T15:46:35.574Z,12.77
2018-09-17T15:49:04.254Z,12.47
2018-09-17T15:51:32.673Z,11.37
2018-09-17T15:54:01.107Z,12.73
2018-09-17T15:56:29.596Z,11.00
2018-09-17T15:58:58.476Z,11.50
2018-09-17T16:01:27.072Z,11.10
2018-09-17T16:03:55.442Z,10.80
2018-09-17T16:06:24.021Z,11.77
2018-09-17T16:08:52.715Z,10.90
2018-09-17T16:11:21.294Z,11.63
2018-09-17T16:13:49.978Z,10.97
2018-09-17T16:16:18.454Z,10.47
2018-09-17T16:18:47.139Z,14.00
2018-09-17T16:21:15.620Z,10.67
2018-09-17T16:23:44.203Z,10.87
2018-09-17T16:26:12.892Z,10.60
2018-09-17T16:28:41.574Z,9.83
2018-09-17T16:31:10.067Z,9.33
2018-09-17T16:33:38.845Z,9.67
2018-09-17T16:36:07.631Z,10.20
2018-09-17T16:38:36.417Z,11.67
2018-09-17T16:41:05.003Z,11.83
2018-09-17T16:43:33.379Z,10.30
2018-09-17T16:46:02.239Z,9.77
2018-09-17T16:48:30.851Z,9.67
2018-09-17T16:51:00.148Z,11.93
2018-09-17T16:53:28.981Z,8.77
2018-09-17T16:55:57.523Z,12.13
2018-09-17T16:58:26.009Z,11.47
2018-09-17T17:00:54.588Z,9.77
2018-09-17T17:03:23.272Z,11.33
2018-09-17T17:05:51.823Z,10.67
2018-09-17T17:08:20.235Z,11.03
2018-09-17T17:10:48.958Z,11.47
2018-09-17T17:13:17.497Z,9.87
2018-09-17T17:15:48.779Z,10.67
2018-09-17T17:18:18.144Z,12.77
2018-09-17T17:20:47.045Z,9.63
2018-09-17T17:23:15.724Z,10.73
2018-09-17T17:25:44.117Z,11.83
2018-09-17T17:28:12.830Z,10.73
2018-09-17T17:30:41.373Z,11.47
2018-09-17T17:33:09.921Z,10.70
2018-09-17T17:35:38.852Z,13.47
2018-09-17T17:38:07.238Z,12.97
2018-09-17T17:40:35.826Z,11.90
2018-09-17T17:43:04.388Z,11.00
2018-09-17T17:45:32.921Z,10.20
2018-09-17T17:48:01.453Z,11.03
2018-09-17T17:50:29.929Z,10.82
2018-09-17T17:52:58.418Z,15.93
2018-09-17T17:55:26.583Z,10.80
2018-09-17T17:57:55.135Z,12.20
2018-09-17T18:00:23.702Z,16.63
2018-09-17T18:02:51.823Z,10.93
2018-09-17T18:05:20.209Z,11.90
2018-09-17T18:07:48.787Z,11.70
2018-09-17T18:10:17.371Z,11.20
2018-09-17T18:12:45.794Z,12.73
2018-09-17T18:15:14.265Z,8.87
2018-09-17T18:17:42.807Z,12.40
2018-09-17T18:20:11.315Z,11.17
2018-09-17T18:22:39.873Z,10.77
2018-09-17T18:25:08.376Z,14.83
2018-09-17T18:27:36.937Z,10.77
2018-09-17T18:30:05.728Z,12.97
2018-09-17T18:32:34.093Z,11.20
2018-09-17T18:35:02.995Z,11.17
2018-09-17T18:37:31.576Z,12.83
2018-09-17T18:40:00.265Z,13.13
2018-09-17T18:42:28.933Z,13.40
2018-09-17T18:44:57.391Z,13.37
2018-09-17T18:47:26.032Z,14.23
2018-09-17T18:49:54.594Z,11.40
2018-09-17T18:52:23.286Z,12.30
2018-09-17T18:54:51.965Z,11.33
2018-09-17T18:57:20.731Z,14.70
2018-09-17T18:59:49.289Z,11.77
2018-09-17T19:02:18.024Z,10.70
2018-09-17T19:04:46.414Z,13.97
2018-09-17T19:07:14.982Z,13.40
2018-09-17T19:09:48.070Z,13.62
2018-09-17T19:12:17.322Z,14.20
2018-09-17T19:14:51.397Z,12.27
2018-09-17T19:17:25.106Z,12.47
2018-09-17T19:19:53.919Z,11.63
2018-09-17T19:22:27.634Z,11.60
2018-09-17T19:24:56.160Z,13.93
2018-09-17T19:28:28.637Z,18.20
2018-09-17T19:30:57.119Z,13.23
2018-09-17T19:33:25.598Z,13.80
2018-09-17T19:35:54.148Z,11.97
2018-09-17T19:38:28.093Z,17.07
2018-09-17T19:40:56.672Z,12.83
2018-09-17T19:43:25.155Z,18.07
2018-09-17T19:45:58.835Z,13.37
2018-09-17T19:48:27.438Z,16.57
2018-09-17T19:51:01.350Z,20.07
2018-09-17T19:53:29.933Z,18.87
2018-09-17T19:55:58.383Z,20.67
2018-09-17T19:58:31.938Z,19.53
2018-09-17T20:01:00.698Z,18.73
2018-09-17T20:03:29.186Z,16.40
2018-09-17T20:06:03.190Z,16.90
2018-09-17T20:08:31.667Z,15.40
2018-09-17T20:11:00.087Z,16.77
2018-09-17T20:13:28.528Z,32.70
2018-09-17T20:15:59.778Z,19.80
2018-09-17T20:18:28.458Z,18.67
2018-09-17T20:20:56.936Z,19.87
2018-09-17T20:23:25.425Z,21.00
2018-09-17T20:25:54.103Z,18.77
2018-09-17T20:28:22.790Z,19.77
2018-09-17T20:30:51.178Z,20.67
2018-09-17T20:33:20.370Z,23.80
2018-09-17T20:35:48.901Z,27.33
2018-09-17T20:38:17.448Z,25.40
2018-09-17T20:40:46.017Z,30.97
2018-09-17T20:43:14.430Z,25.63
2018-09-17T20:45:42.973Z,24.93
2018-09-17T20:48:11.555Z,22.83
2018-09-17T20:50:40.050Z,20.73
2018-09-17T20:53:08.724Z,20.23
2018-09-17T20:55:37.108Z,21.80
2018-09-17T20:58:05.682Z,15.80
2018-09-17T21:00:34.000Z,19.03
2018-09-17T21:03:02.376Z,19.47
2018-09-17T21:05:30.918Z,20.40
2018-09-17T21:07:59.427Z,19.03
2018-09-17T21:10:28.187Z,17.60
2018-09-17T21:12:56.840Z,21.87
2018-09-17T21:15:25.257Z,17.50
2018-09-17T21:17:53.936Z,16.30
2018-09-17T21:20:22.312Z,19.20
2018-09-17T21:22:50.797Z,22.83
2018-09-17T21:25:19.471Z,18.20
2018-09-17T21:27:47.880Z,18.07
2018-09-17T21:30:16.442Z,21.07
2018-09-17T21:32:45.129Z,20.03
2018-09-17T21:35:13.831Z,19.23
2018-09-17T21:37:42.395Z,21.90
2018-09-17T21:40:10.976Z,18.00
2018-09-17T21:42:39.562Z,16.80
2018-09-17T21:45:08.875Z,22.82
2018-09-17T21:47:37.286Z,27.70
2018-09-17T21:50:05.827Z,24.20
2018-09-17T21:52:34.536Z,21.93
2018-09-17T21:55:03.299Z,20.50
2018-09-17T21:57:32.176Z,22.40
2018-09-17T22:00:00.974Z,21.23
2018-09-17T22:02:29.568Z,25.23
2018-09-17T22:04:58.054Z,23.17
2018-09-17T22:07:26.717Z,25.20
2018-09-17T22:09:55.409Z,20.87
2018-09-17T22:12:23.993Z,26.73
2018-09-17T22:14:52.367Z,23.00
2018-09-17T22:17:21.159Z,22.63
2018-09-17T22:19:49.780Z,19.77
2018-09-17T22:22:18.324Z,25.67
2018-09-17T22:24:46.908Z,19.20
2018-09-17T22:27:15.202Z,20.77
2018-09-17T22:29:43.562Z,22.90
2018-09-17T22:32:12.054Z,21.73
2018-09-17T22:34:40.622Z,19.37
2018-09-17T22:37:09.102Z,24.13
2018-09-17T22:39:37.900Z,19.70
2018-09-17T22:42:06.444Z,21.90
2018-09-17T22:44:35.057Z,19.20
2018-09-17T22:47:03.847Z,20.30
2018-09-17T22:49:32.631Z,22.30
2018-09-17T22:52:01.113Z,24.63
2018-09-17T22:54:29.593Z,22.23
2018-09-17T22:56:58.278Z,22.77
2018-09-17T22:59:26.890Z,21.93
2018-09-17T23:01:55.447Z,20.27
2018-09-17T23:04:24.027Z,19.07
2018-09-17T23:06:52.713Z,20.60
2018-09-17T23:09:21.297Z,24.13
2018-09-17T23:11:49.981Z,21.03
2018-09-17T23:14:18.566Z,20.00
2018-09-17T23:16:47.148Z,21.00
2018-09-17T23:19:15.737Z,21.80
2018-09-17T23:21:44.312Z,19.33
2018-09-17T23:24:12.896Z,17.90
2018-09-17T23:26:41.178Z,18.17
2018-09-17T23:29:09.858Z,18.70
2018-09-17T23:31:38.338Z,18.43
2018-09-17T23:34:06.923Z,15.03
2018-09-17T23:36:35.606Z,21.33
2018-09-17T23:39:05.008Z,18.93
2018-09-17T23:41:33.528Z,18.13
2018-09-17T23:44:01.890Z,15.70
2018-09-17T23:46:30.449Z,17.97
2018-09-17T23:48:59.032Z,16.80
2018-09-17T23:51:27.618Z,17.93
2018-09-17T23:53:56.096Z,18.20
2018-09-17T23:56:24.684Z,20.37
2018-09-17T23:58:53.363Z,17.47
